This is the latest recevied weather packets stored in our database for station/object VK4ZPK-13. If no packets are shown the sender has not sent any weather packets the latest 1 day(s).
| Time | Temp. | Humidity | Pressure | Rain* | Wind** | Luminosity | Snow |
|---|---|---|---|---|---|---|---|
| 1778055146 | 21.67° C | 90% | 1012.6 hPa | 0 mm | 0.45 m/s, 90° | - | - |
| 1778053346 | 21.67° C | 88% | 1012.4 hPa | 0 mm | 0.45 m/s, 110° | - | - |
| 1778051546 | 22.22° C | 87% | 1012.4 hPa | 0 mm | 0.45 m/s, 108° | - | - |
| 1778049746 | 22.22° C | 85% | 1012.3 hPa | 0 mm | 0.89 m/s, 117° | - | - |
| 1778047946 | 22.22° C | 85% | 1012 hPa | 0 mm | 1.34 m/s, 150° | - | - |
| 1778046146 | 22.22° C | 88% | 1012 hPa | 0 mm | 1.34 m/s, 132° | - | - |
| 1778044346 | 22.22° C | 89% | 1011.8 hPa | 0 mm | 1.34 m/s, 141° | - | - |
| 1778042546 | 22.22° C | 93% | 1012 hPa | 0 mm | 1.79 m/s, 143° | - | - |
| 1778040746 | 21.67° C | 93% | 1012.2 hPa | 0 mm | 1.79 m/s, 150° | - | - |
| 1778038946 | 21.67° C | 92% | 1012.5 hPa | 0.76 mm | 1.79 m/s, 145° | - | - |
| 1778037146 | 22.78° C | 92% | 1012.6 hPa | 0.25 mm | 1.34 m/s, 150° | - | - |
| 1778035346 | 22.78° C | 93% | 1012.7 hPa | 0 mm | 1.34 m/s, 108° | - | - |
| 1778033546 | 22.22° C | 95% | 1012.9 hPa | 0 mm | 0.89 m/s, 90° | - | - |
| 1778031746 | 22.22° C | 94% | 1013.2 hPa | 0.76 mm | 1.79 m/s, 9° | - | - |
| 1778029946 | 22.22° C | 94% | 1013.7 hPa | 7.37 mm | 1.34 m/s, 21° | - | - |
| 1778028146 | 22.78° C | 92% | 1013.9 hPa | 4.83 mm | 3.13 m/s, 352° | - | - |
| 1778026346 | 23.33° C | 94% | 1014 hPa | 0 mm | 0.45 m/s, 138° | - | - |
| 1778024546 | 22.78° C | 95% | 1013.8 hPa | 0 mm | 0.89 m/s, 136° | - | - |
| 1778022746 | 22.22° C | 96% | 1013.8 hPa | 0 mm | 0.45 m/s, 138° | - | - |
| 1778020946 | 21.11° C | 97% | 1013.7 hPa | 0 mm | 0.45 m/s, 123° | - | - |
| 1778019146 | 21.11° C | 96% | 1013.5 hPa | 0 mm | 1.34 m/s, 154° | - | - |
| 1778017346 | 20° C | 98% | 1013.4 hPa | 0 mm | 0.89 m/s, 152° | - | - |
| 1778015546 | 19.44° C | 97% | 1013.1 hPa | 0 mm | 0.89 m/s, 150° | - | - |
| 1778013746 | 19.44° C | 97% | 1012.9 hPa | 0 mm | 1.34 m/s, 166° | - | - |
| 1778011946 | 19.44° C | 97% | 1012.5 hPa | 0 mm | 1.34 m/s, 166° | - | - |
* Rain latest hour (hover to see other rain measurements)
** Current wind speed in m/s (hover to see current wind gust speed)